createdAt,value
2023-01-04T00:01:08.400Z,11.60
2023-01-04T00:03:35.191Z,11.23
2023-01-04T00:06:04.821Z,9.68
2023-01-04T00:11:07.743Z,12.10
2023-01-04T00:13:34.984Z,9.98
2023-01-04T00:16:10.565Z,9.00
2023-01-04T00:18:39.810Z,10.70
2023-01-04T00:21:11.533Z,11.38
2023-01-04T00:23:39.185Z,10.45
2023-01-04T00:26:14.150Z,13.10
2023-01-04T00:28:40.779Z,11.88
2023-01-04T00:31:10.485Z,11.18
2023-01-04T00:33:37.656Z,9.95
2023-01-04T00:36:06.629Z,11.82
2023-01-04T00:38:34.499Z,11.85
2023-01-04T00:41:01.360Z,11.75
2023-01-04T00:43:27.745Z,14.80
2023-01-04T00:45:54.571Z,12.38
2023-01-04T00:48:21.116Z,13.30
2023-01-04T00:50:48.976Z,13.20
2023-01-04T00:53:17.142Z,13.90
2023-01-04T00:55:43.567Z,14.98
2023-01-04T00:58:10.265Z,16.63
2023-01-04T01:00:36.901Z,14.07
2023-01-04T01:03:03.756Z,15.52
2023-01-04T01:05:30.431Z,17.65
2023-01-04T01:07:56.750Z,16.95
2023-01-04T01:10:23.049Z,16.63
2023-01-04T01:12:49.352Z,15.82
2023-01-04T01:15:15.690Z,16.67
2023-01-04T01:17:42.020Z,16.27
2023-01-04T01:20:08.881Z,16.88
2023-01-04T01:22:36.167Z,18.52
2023-01-04T01:25:02.493Z,17.55
2023-01-04T01:27:28.782Z,16.80
2023-01-04T01:29:55.083Z,18.63
2023-01-04T01:32:21.406Z,17.40
2023-01-04T01:34:47.697Z,15.15
2023-01-04T01:37:14.014Z,18.63
2023-01-04T01:39:40.338Z,16.88
2023-01-04T01:42:06.676Z,19.25
2023-01-04T01:44:42.086Z,17.90
2023-01-04T01:47:38.231Z,16.92
2023-01-04T01:50:06.322Z,18.33
2023-01-04T01:52:37.468Z,15.55
2023-01-04T01:55:08.673Z,18.08
2023-01-04T01:57:37.658Z,17.77
2023-01-04T02:00:12.671Z,15.70
2023-01-04T02:02:48.440Z,16.52
2023-01-04T02:05:15.331Z,16.27
2023-01-04T02:07:42.274Z,16.85
2023-01-04T02:10:09.123Z,15.23
2023-01-04T02:12:35.441Z,15.25
2023-01-04T02:15:01.938Z,17.80
2023-01-04T02:17:53.699Z,17.30
2023-01-04T02:20:37.709Z,16.73
2023-01-04T02:23:38.377Z,16.10
2023-01-04T02:26:39.974Z,18.20
2023-01-04T02:29:33.027Z,15.63
2023-01-04T02:32:09.173Z,17.52
2023-01-04T02:35:00.187Z,17.60
2023-01-04T02:37:45.846Z,16.23
2023-01-04T02:40:29.578Z,16.85
2023-01-04T02:43:27.548Z,16.40
2023-01-04T02:46:04.661Z,18.08
2023-01-04T02:48:57.312Z,17.10
2023-01-04T02:51:32.969Z,16.92
2023-01-04T02:54:04.563Z,18.85
2023-01-04T02:56:41.737Z,19.95
2023-01-04T02:59:29.278Z,18.08
2023-01-04T03:02:35.053Z,18.27
2023-01-04T03:06:02.338Z,20.90
2023-01-04T03:08:36.540Z,20.50
2023-01-04T03:11:30.272Z,17.95
2023-01-04T03:14:30.734Z,16.80
2023-01-04T03:16:55.670Z,18.17
2023-01-04T03:19:43.315Z,21.20
2023-01-04T03:22:32.962Z,17.83
2023-01-04T03:25:19.931Z,17.30
2023-01-04T03:28:09.217Z,19.17
2023-01-04T03:31:05.109Z,17.20
2023-01-04T03:33:51.051Z,17.30
2023-01-04T03:36:28.952Z,18.67
2023-01-04T03:39:42.119Z,18.02
2023-01-04T03:42:37.338Z,17.85
2023-01-04T03:45:49.529Z,16.65
2023-01-04T03:48:31.305Z,16.30
2023-01-04T03:51:05.432Z,15.45
2023-01-04T03:53:37.849Z,17.10
2023-01-04T03:56:06.090Z,17.20
2023-01-04T03:58:32.514Z,17.38
2023-01-04T04:01:03.766Z,14.73
2023-01-04T04:03:50.028Z,14.18
2023-01-04T04:06:35.340Z,14.93
2023-01-04T04:09:02.373Z,13.95
2023-01-04T04:11:31.600Z,12.48
2023-01-04T04:13:59.486Z,13.60
2023-01-04T04:16:27.450Z,12.73
2023-01-04T04:18:54.154Z,12.13
2023-01-04T04:21:20.482Z,11.20
2023-01-04T04:23:46.884Z,12.00
2023-01-04T04:26:13.469Z,11.52
2023-01-04T04:28:39.738Z,12.93
2023-01-04T04:31:06.598Z,12.95
2023-01-04T04:33:32.912Z,11.98
2023-01-04T04:35:59.250Z,12.32
2023-01-04T04:38:25.568Z,11.32
2023-01-04T04:41:10.231Z,11.77
2023-01-04T04:43:36.585Z,11.90
2023-01-04T04:46:03.165Z,11.82
2023-01-04T04:48:29.539Z,11.60
2023-01-04T04:50:55.859Z,12.30
2023-01-04T04:53:22.187Z,11.48
2023-01-04T04:55:51.804Z,11.70
2023-01-04T04:58:18.629Z,10.80
2023-01-04T05:00:45.029Z,12.15
2023-01-04T05:03:11.505Z,12.27
2023-01-04T05:05:37.898Z,13.43
2023-01-04T05:08:04.394Z,14.48
2023-01-04T05:10:30.702Z,14.60
2023-01-04T05:13:00.147Z,15.43
2023-01-04T05:17:53.885Z,15.63
2023-01-04T05:20:20.483Z,14.95
2023-01-04T05:22:46.821Z,16.20
2023-01-04T05:25:13.216Z,16.33
2023-01-04T05:27:40.348Z,16.38
2023-01-04T05:30:25.426Z,16.75
2023-01-04T05:32:51.950Z,16.77
2023-01-04T05:35:18.256Z,15.63
2023-01-04T05:37:44.554Z,18.33
2023-01-04T05:40:11.193Z,16.95
2023-01-04T05:42:37.537Z,16.80
2023-01-04T05:45:04.285Z,15.45
2023-01-04T05:47:30.678Z,17.27
2023-01-04T05:49:57.041Z,17.17
2023-01-04T05:52:23.409Z,17.42
2023-01-04T05:54:51.352Z,16.15
2023-01-04T05:57:20.956Z,17.02
2023-01-04T05:59:47.299Z,15.23
2023-01-04T06:02:20.707Z,15.95
2023-01-04T06:04:51.519Z,15.48
2023-01-04T06:07:21.861Z,16.20
2023-01-04T06:09:48.314Z,15.20
2023-01-04T06:12:14.740Z,15.32
2023-01-04T06:14:41.442Z,16.90
2023-01-04T06:17:08.267Z,15.63
2023-01-04T06:19:34.852Z,14.20
2023-01-04T06:22:01.437Z,17.45
2023-01-04T06:24:27.998Z,16.58
2023-01-04T06:26:54.404Z,14.55
2023-01-04T06:29:20.735Z,14.57
2023-01-04T06:31:47.098Z,16.55
2023-01-04T06:34:14.707Z,13.65
2023-01-04T06:36:44.361Z,13.75
2023-01-04T06:39:10.807Z,14.00
2023-01-04T06:41:37.272Z,14.20
2023-01-04T06:44:04.180Z,14.90
2023-01-04T06:46:30.639Z,12.98
2023-01-04T06:48:58.054Z,14.23
2023-01-04T06:51:24.732Z,12.70
2023-01-04T06:53:51.198Z,14.35
2023-01-04T06:56:17.504Z,13.27
2023-01-04T06:58:43.872Z,13.50
2023-01-04T07:01:10.337Z,12.93
2023-01-04T07:03:36.779Z,12.48
2023-01-04T07:06:07.296Z,12.75
2023-01-04T07:08:34.717Z,12.93
2023-01-04T07:11:01.206Z,12.38
2023-01-04T07:13:27.576Z,11.98
2023-01-04T07:15:54.047Z,23.20
2023-01-04T07:18:20.550Z,16.05
2023-01-04T07:20:46.879Z,14.32
2023-01-04T07:23:13.181Z,14.60
2023-01-04T07:25:39.513Z,11.20
2023-01-04T07:28:05.995Z,12.32
2023-01-04T07:30:32.415Z,10.80
2023-01-04T07:32:58.792Z,9.98
2023-01-04T07:35:25.666Z,10.13
2023-01-04T07:37:57.913Z,9.02
2023-01-04T07:40:25.680Z,9.73
2023-01-04T07:42:57.220Z,8.48
2023-01-04T07:45:24.098Z,7.57
2023-01-04T07:47:50.631Z,7.68
2023-01-04T07:50:17.049Z,6.97
2023-01-04T07:52:43.357Z,6.38
2023-01-04T07:55:12.333Z,6.85
2023-01-04T07:57:38.683Z,6.30
2023-01-04T08:00:06.723Z,6.78
2023-01-04T08:02:33.159Z,5.90
2023-01-04T08:05:03.126Z,6.45
2023-01-04T08:07:29.950Z,5.53
2023-01-04T08:09:56.262Z,5.63
2023-01-04T08:12:22.577Z,6.07
2023-01-04T08:14:49.485Z,5.55
2023-01-04T08:17:15.783Z,5.18
2023-01-04T08:19:45.900Z,6.22
2023-01-04T08:22:13.555Z,5.50
2023-01-04T08:24:39.957Z,5.38
2023-01-04T08:27:07.834Z,4.88
2023-01-04T08:29:35.521Z,5.40
2023-01-04T08:32:02.698Z,5.03
2023-01-04T08:34:29.749Z,5.40
2023-01-04T08:36:56.485Z,5.07
2023-01-04T08:39:22.817Z,4.65
2023-01-04T08:41:58.893Z,4.15
2023-01-04T08:44:27.987Z,3.80
2023-01-04T08:46:55.191Z,4.22
2023-01-04T08:49:22.975Z,4.05
2023-01-04T08:51:49.734Z,4.18
2023-01-04T08:54:16.572Z,3.90
2023-01-04T08:56:43.473Z,3.75
2023-01-04T08:59:11.130Z,4.63
2023-01-04T09:01:39.387Z,4.18
2023-01-04T09:04:05.986Z,3.90
2023-01-04T09:06:32.498Z,3.50
2023-01-04T09:08:59.384Z,2.90
2023-01-04T09:11:26.582Z,3.78
2023-01-04T09:14:06.893Z,3.05
2023-01-04T09:16:35.201Z,2.85
2023-01-04T09:19:01.791Z,2.90
2023-01-04T09:21:28.767Z,2.50
2023-01-04T09:23:57.088Z,2.33
2023-01-04T09:26:23.931Z,2.65
2023-01-04T09:28:52.643Z,2.60
2023-01-04T09:31:22.184Z,2.55
2023-01-04T09:34:13.461Z,2.47
2023-01-04T09:36:37.037Z,2.30
2023-01-04T09:39:03.850Z,2.65
2023-01-04T09:41:39.958Z,2.85
2023-01-04T09:44:09.343Z,2.35
2023-01-04T09:49:43.543Z,2.42
2023-01-04T09:52:09.868Z,2.40
2023-01-04T09:55:04.854Z,2.30
2023-01-04T09:58:03.928Z,3.00
2023-01-04T10:00:40.202Z,2.60
2023-01-04T10:03:24.220Z,2.55
2023-01-04T10:05:52.775Z,2.65
2023-01-04T10:08:20.279Z,2.08
2023-01-04T10:10:51.812Z,2.25
2023-01-04T10:13:39.778Z,2.47
2023-01-04T10:17:10.436Z,2.55
2023-01-04T10:22:34.182Z,1.98
2023-01-04T10:25:22.222Z,1.85
2023-01-04T10:28:04.354Z,2.17
2023-01-04T10:31:39.830Z,2.72
2023-01-04T10:34:20.209Z,2.13
2023-01-04T10:36:47.984Z,3.00
2023-01-04T10:39:22.612Z,2.00
2023-01-04T10:42:07.641Z,2.53
2023-01-04T10:44:57.301Z,1.73
2023-01-04T10:47:52.280Z,2.38
2023-01-04T10:50:26.201Z,2.45
2023-01-04T10:53:17.444Z,2.30
2023-01-04T10:56:23.524Z,2.15
2023-01-04T10:58:45.530Z,2.53
2023-01-04T11:01:37.725Z,2.28
2023-01-04T11:04:32.231Z,2.03
2023-01-04T11:07:15.925Z,2.13
2023-01-04T11:10:01.239Z,2.13
2023-01-04T11:12:31.782Z,1.90
2023-01-04T11:14:58.273Z,2.58
2023-01-04T11:17:25.155Z,1.98
2023-01-04T11:19:52.547Z,2.10
2023-01-04T11:22:46.481Z,2.10
2023-01-04T11:25:35.774Z,2.10
2023-01-04T11:28:12.544Z,2.10
2023-01-04T11:30:58.686Z,2.30
2023-01-04T11:33:25.632Z,2.10
2023-01-04T11:35:55.617Z,2.40
2023-01-04T11:38:24.645Z,2.75
2023-01-04T11:41:00.352Z,2.25
2023-01-04T11:43:29.650Z,2.08
2023-01-04T11:48:34.890Z,2.03
2023-01-04T11:51:02.298Z,2.10
2023-01-04T11:53:39.325Z,2.20
2023-01-04T11:56:26.316Z,2.25
2023-01-04T11:59:22.638Z,1.85
2023-01-04T12:01:55.089Z,1.90
2023-01-04T12:04:25.465Z,2.00
2023-01-04T12:06:53.504Z,2.20
2023-01-04T12:09:21.779Z,1.90
2023-01-04T12:11:54.365Z,1.42
2023-01-04T12:14:32.253Z,2.00
2023-01-04T12:17:10.254Z,2.00
2023-01-04T12:19:38.353Z,1.80
2023-01-04T12:22:19.595Z,1.92
2023-01-04T12:24:46.591Z,2.70
2023-01-04T12:27:14.508Z,1.75
2023-01-04T12:29:44.644Z,1.90
2023-01-04T12:32:14.048Z,2.55
2023-01-04T12:34:43.562Z,2.47
2023-01-04T12:37:11.803Z,2.03
2023-01-04T12:39:44.381Z,1.95
2023-01-04T12:42:13.380Z,1.90
2023-01-04T12:44:40.488Z,2.17
2023-01-04T12:47:34.543Z,1.90
2023-01-04T12:50:07.879Z,2.00
2023-01-04T12:52:43.051Z,1.85
2023-01-04T12:55:32.385Z,1.85
2023-01-04T12:58:04.510Z,1.80
2023-01-04T13:00:49.742Z,1.90
2023-01-04T13:03:23.414Z,2.60
2023-01-04T13:06:02.201Z,1.90
2023-01-04T13:08:33.282Z,1.95
2023-01-04T13:11:03.502Z,3.10
2023-01-04T13:13:49.349Z,2.50
2023-01-04T13:16:23.254Z,1.98
2023-01-04T13:18:56.378Z,2.08
2023-01-04T13:21:40.999Z,1.45
2023-01-04T13:24:26.819Z,1.58
2023-01-04T13:26:54.026Z,1.70
2023-01-04T13:29:27.818Z,1.60
2023-01-04T13:32:00.323Z,1.50
2023-01-04T13:34:37.505Z,1.75
2023-01-04T13:37:15.143Z,1.90
2023-01-04T13:39:44.526Z,1.60
2023-01-04T13:45:19.102Z,2.03
2023-01-04T13:47:48.859Z,1.83
2023-01-04T13:50:36.874Z,1.70
2023-01-04T13:53:08.052Z,2.03
2023-01-04T13:55:38.768Z,1.80
2023-01-04T13:58:17.956Z,1.75
2023-01-04T14:00:48.318Z,2.08
2023-01-04T14:03:31.570Z,2.10
2023-01-04T14:06:10.162Z,1.60
2023-01-04T14:08:41.239Z,2.25
2023-01-04T14:11:46.055Z,1.75
2023-01-04T14:14:22.055Z,1.70
2023-01-04T14:16:49.634Z,1.45
2023-01-04T14:19:41.811Z,1.75
2023-01-04T14:22:23.214Z,1.70
2023-01-04T14:25:09.028Z,1.50
2023-01-04T14:27:42.370Z,1.63
2023-01-04T14:30:19.419Z,2.30
2023-01-04T14:33:02.899Z,2.08
2023-01-04T14:35:30.035Z,1.83
2023-01-04T14:38:06.429Z,1.45
2023-01-04T14:40:33.689Z,1.50
2023-01-04T14:43:00.116Z,1.95
2023-01-04T14:45:26.613Z,1.50
2023-01-04T14:47:52.981Z,1.15
2023-01-04T14:50:19.375Z,1.33
2023-01-04T14:52:53.210Z,1.35
2023-01-04T14:55:20.035Z,1.35
2023-01-04T14:57:46.433Z,1.60
2023-01-04T15:00:19.584Z,1.30
2023-01-04T15:02:50.192Z,1.20
2023-01-04T15:05:20.799Z,1.52
2023-01-04T15:07:47.523Z,1.77
2023-01-04T15:10:26.450Z,1.20
2023-01-04T15:12:53.492Z,2.10
2023-01-04T15:15:20.122Z,1.40
2023-01-04T15:17:47.212Z,1.20
2023-01-04T15:20:13.640Z,1.25
2023-01-04T15:22:40.890Z,1.30
2023-01-04T15:25:07.704Z,1.60
2023-01-04T15:27:40.014Z,1.58
2023-01-04T15:30:11.131Z,1.17
2023-01-04T15:32:37.465Z,1.58
2023-01-04T15:35:04.227Z,1.30
2023-01-04T15:37:30.765Z,1.30
2023-01-04T15:40:02.294Z,1.30
2023-01-04T15:43:08.673Z,1.88
2023-01-04T15:45:37.170Z,1.30
2023-01-04T15:48:04.916Z,1.42
2023-01-04T15:50:34.950Z,1.55
2023-01-04T15:53:01.603Z,1.45
2023-01-04T15:55:36.139Z,1.35
2023-01-04T15:58:07.067Z,1.55
2023-01-04T16:00:33.371Z,1.40
2023-01-04T16:02:59.869Z,1.40
2023-01-04T16:05:26.233Z,1.55
2023-01-04T16:07:52.745Z,1.30
2023-01-04T16:10:19.259Z,1.58
2023-01-04T16:12:49.933Z,1.90
2023-01-04T16:15:21.701Z,1.70
2023-01-04T16:17:48.420Z,1.40
2023-01-04T16:20:17.499Z,1.42
2023-01-04T16:22:43.881Z,1.20
2023-01-04T16:25:12.213Z,1.65
2023-01-04T16:27:39.697Z,1.50
2023-01-04T16:30:10.662Z,1.20
2023-01-04T16:32:39.949Z,1.40
2023-01-04T16:37:32.549Z,1.52
2023-01-04T16:40:07.362Z,1.38
2023-01-04T16:45:01.992Z,1.38
2023-01-04T16:47:28.283Z,1.73
2023-01-04T16:49:54.749Z,1.50
2023-01-04T16:52:21.520Z,1.50
2023-01-04T16:54:48.606Z,1.40
2023-01-04T16:57:14.952Z,1.40
2023-01-04T16:59:41.364Z,1.75
2023-01-04T17:02:11.099Z,1.50
2023-01-04T17:04:40.581Z,1.30
2023-01-04T17:07:06.963Z,1.75
2023-01-04T17:09:35.113Z,1.55
2023-01-04T17:12:45.034Z,1.50
2023-01-04T17:15:00.886Z,1.52
2023-01-04T17:17:34.639Z,1.48
2023-01-04T17:20:01.017Z,1.67
2023-01-04T17:22:33.900Z,1.58
2023-01-04T17:25:00.712Z,1.83
2023-01-04T17:27:27.014Z,1.40
2023-01-04T17:29:53.313Z,2.00
2023-01-04T17:32:19.715Z,1.98
2023-01-04T17:34:46.015Z,1.85
2023-01-04T17:37:13.302Z,1.73
2023-01-04T17:39:39.649Z,1.80
2023-01-04T17:42:05.988Z,2.22
2023-01-04T17:44:32.305Z,1.77
2023-01-04T17:46:58.618Z,1.92
2023-01-04T17:49:31.258Z,2.15
2023-01-04T17:51:58.280Z,1.80
2023-01-04T17:54:25.509Z,1.60
2023-01-04T17:56:51.859Z,2.13
2023-01-04T17:59:20.200Z,1.88
2023-01-04T18:01:47.402Z,1.75
2023-01-04T18:04:13.996Z,1.83
2023-01-04T18:06:40.531Z,1.90
2023-01-04T18:09:07.809Z,1.85
2023-01-04T18:11:35.095Z,2.08
2023-01-04T18:14:04.252Z,2.03
2023-01-04T18:16:54.374Z,1.95
2023-01-04T18:19:20.667Z,1.80
2023-01-04T18:21:47.050Z,1.83
2023-01-04T18:24:35.468Z,1.73
2023-01-04T18:27:21.029Z,1.95
2023-01-04T18:29:47.641Z,1.80
2023-01-04T18:32:13.943Z,2.08
2023-01-04T18:34:40.299Z,1.98
2023-01-04T18:37:06.576Z,1.73
2023-01-04T18:39:32.963Z,2.17
2023-01-04T18:41:59.259Z,1.90
2023-01-04T18:44:34.384Z,2.65
2023-01-04T18:47:01.095Z,2.08
2023-01-04T18:49:27.391Z,1.77
2023-01-04T18:51:53.669Z,2.47
2023-01-04T18:54:21.295Z,1.90
2023-01-04T18:56:47.754Z,2.10
2023-01-04T18:59:18.731Z,2.55
2023-01-04T19:01:45.499Z,2.20
2023-01-04T19:04:12.738Z,1.88
2023-01-04T19:06:40.413Z,2.10
2023-01-04T19:09:07.436Z,1.80
2023-01-04T19:11:35.062Z,2.80
2023-01-04T19:14:02.488Z,2.40
2023-01-04T19:16:32.032Z,2.25
2023-01-04T19:18:59.974Z,2.08
2023-01-04T19:21:26.896Z,2.30
2023-01-04T19:23:53.423Z,2.20
2023-01-04T19:26:20.539Z,2.30
2023-01-04T19:28:47.117Z,1.92
2023-01-04T19:31:14.409Z,2.25
2023-01-04T19:33:41.112Z,2.53
2023-01-04T19:36:09.541Z,2.15
2023-01-04T19:38:36.639Z,2.03
2023-01-04T19:41:04.090Z,1.95
2023-01-04T19:43:30.502Z,1.65
2023-01-04T19:45:56.898Z,1.95
2023-01-04T19:48:24.276Z,1.80
2023-01-04T19:51:06.742Z,2.15
2023-01-04T19:53:33.214Z,1.80
2023-01-04T19:55:59.593Z,1.85
2023-01-04T19:58:25.879Z,2.00
2023-01-04T20:00:54.838Z,2.00
2023-01-04T20:05:56.181Z,1.58
2023-01-04T20:08:22.551Z,1.92
2023-01-04T20:10:55.982Z,2.40
2023-01-04T20:13:22.500Z,2.40
2023-01-04T20:15:48.881Z,1.98
2023-01-04T20:18:15.201Z,1.88
2023-01-04T20:20:45.449Z,1.80
2023-01-04T20:23:13.004Z,2.13
2023-01-04T20:25:40.556Z,1.40
2023-01-04T20:28:07.043Z,2.28
2023-01-04T20:30:33.544Z,2.33
2023-01-04T20:33:00.027Z,2.30
2023-01-04T20:35:26.405Z,1.50
2023-01-04T20:37:56.397Z,1.58
2023-01-04T20:40:25.186Z,1.60
2023-01-04T20:43:10.214Z,1.75
2023-01-04T20:45:44.189Z,1.58
2023-01-04T20:48:11.107Z,1.95
2023-01-04T20:50:38.944Z,1.65
2023-01-04T20:53:06.181Z,1.52
2023-01-04T20:55:37.535Z,1.83
2023-01-04T20:58:05.192Z,1.73
2023-01-04T21:00:31.673Z,2.10
2023-01-04T21:02:58.111Z,1.50
2023-01-04T21:05:24.596Z,1.27
2023-01-04T21:07:50.951Z,1.30
2023-01-04T21:10:17.342Z,1.20
2023-01-04T21:12:43.620Z,1.42
2023-01-04T21:15:10.172Z,1.63
2023-01-04T21:17:36.969Z,1.20
2023-01-04T21:20:03.998Z,1.67
2023-01-04T21:22:30.333Z,1.00
2023-01-04T21:24:56.620Z,1.30
2023-01-04T21:27:23.300Z,1.00
2023-01-04T21:29:50.798Z,1.08
2023-01-04T21:32:17.182Z,1.42
2023-01-04T21:34:43.512Z,1.00
2023-01-04T21:37:09.856Z,1.10
2023-01-04T21:39:36.294Z,1.35
2023-01-04T21:42:02.704Z,1.27
2023-01-04T21:44:29.103Z,1.00
2023-01-04T21:46:55.486Z,1.75
2023-01-04T21:49:21.921Z,1.15
2023-01-04T21:51:48.202Z,1.20
2023-01-04T21:54:14.540Z,1.17
2023-01-04T21:56:41.311Z,1.30
2023-01-04T21:59:07.645Z,1.50
2023-01-04T22:01:35.472Z,1.08
2023-01-04T22:04:03.015Z,1.00
2023-01-04T22:06:29.631Z,1.13
2023-01-04T22:08:56.049Z,1.17
2023-01-04T22:11:22.467Z,1.38
2023-01-04T22:13:50.232Z,1.00
2023-01-04T22:16:18.944Z,1.20
2023-01-04T22:18:47.357Z,1.77
2023-01-04T22:21:17.853Z,1.17
2023-01-04T22:23:44.214Z,1.83
2023-01-04T22:26:10.621Z,1.17
2023-01-04T22:28:37.556Z,0.95
2023-01-04T22:31:10.577Z,1.30
2023-01-04T22:33:38.507Z,1.27
2023-01-04T22:36:21.083Z,1.17
2023-01-04T22:38:49.448Z,1.20
2023-01-04T22:41:18.769Z,1.23
2023-01-04T22:43:45.262Z,1.30
2023-01-04T22:46:17.561Z,1.45
2023-01-04T22:48:45.393Z,1.30
2023-01-04T22:51:14.433Z,1.25
2023-01-04T22:53:41.287Z,1.17
2023-01-04T22:56:18.806Z,1.35
2023-01-04T22:58:52.472Z,1.55
2023-01-04T23:01:20.622Z,1.60
2023-01-04T23:03:47.105Z,1.20
2023-01-04T23:06:13.869Z,1.17
2023-01-04T23:08:40.777Z,1.40
2023-01-04T23:11:14.124Z,1.10
2023-01-04T23:13:41.366Z,1.13
2023-01-04T23:16:10.731Z,1.05
2023-01-04T23:18:37.227Z,0.98
2023-01-04T23:21:06.105Z,1.23
2023-01-04T23:23:33.047Z,1.55
2023-01-04T23:26:07.825Z,1.42
2023-01-04T23:28:37.877Z,1.08
2023-01-04T23:31:06.441Z,1.20
2023-01-04T23:33:36.513Z,1.52
2023-01-04T23:36:30.966Z,1.75
2023-01-04T23:38:59.684Z,1.20
2023-01-04T23:41:45.416Z,0.95
2023-01-04T23:47:00.732Z,1.00
2023-01-04T23:49:29.186Z,1.10
2023-01-04T23:51:56.340Z,1.33
2023-01-04T23:54:22.912Z,0.90
2023-01-04T23:56:49.399Z,0.80
2023-01-04T23:59:15.871Z,0.80
